Time,TemperatureF,DewpointF,PressureIn,WindDirection,WindDirectionDegrees,WindSpeedMPH,WindSpeedGustMPH,Humidity,HourlyPrecipIn,Conditions,Clouds,dailyrainin,SolarRadiationWatts/m^2,SoftwareType,DateUTC
2013-01-17 00:04:00,28.6,24.1,30.24,West,266,0.0,0.0,83,0.00,CLR,,0.00,0.0,WeatherDisplay:10.37,2013-01-17 06:04:00,
2013-01-17 00:09:00,28.5,23.7,30.24,West,266,0.0,0.0,82,0.00,CLR,,0.00,0.0,WeatherDisplay:10.37,2013-01-17 06:09:00,
2013-01-17 00:14:00,29.1,22.5,30.24,West,266,1.9,3.0,76,0.00,CLR,,0.00,0.0,WeatherDisplay:10.37,2013-01-17 06:14:00,
2013-01-17 00:19:00,28.6,23.2,30.24,West,266,1.4,4.0,80,0.00,CLR,,0.00,0.0,WeatherDisplay:10.37,2013-01-17 06:19:00,
2013-01-17 00:24:00,28.3,22.9,30.25,West,266,1.8,2.3,80,0.00,CLR,,0.00,0.0,WeatherDisplay:10.37,2013-01-17 06:24:00,
2013-01-17 00:29:00,28.0,22.9,30.25,West,266,0.6,1.1,81,0.00,CLR,,0.00,0.0,WeatherDisplay:10.37,2013-01-17 06:29:00,
2013-01-17 00:34:00,28.9,22.9,30.25,West,266,2.7,3.5,78,0.00,CLR,,0.00,0.0,WeatherDisplay:10.37,2013-01-17 06:34:00,
2013-01-17 00:39:00,29.3,22.4,30.25,West,266,0.1,2.3,75,0.00,CLR,,0.00,0.0,WeatherDisplay:10.37,2013-01-17 06:39:00,
2013-01-17 00:44:00,28.4,23.0,30.25,West,266,0.0,1.1,80,0.00,CLR,,0.00,0.0,WeatherDisplay:10.37,2013-01-17 06:44:00,
2013-01-17 00:49:00,28.3,23.5,30.25,West,266,0.0,0.0,82,0.00,CLR,,0.00,0.0,WeatherDisplay:10.37,2013-01-17 06:49:00,
2013-01-17 00:54:00,27.6,23.1,30.25,West,266,0.0,0.0,83,0.00,CLR,,0.00,0.0,WeatherDisplay:10.37,2013-01-17 06:54:00,
2013-01-17 00:59:00,28.0,23.2,30.26,West,266,0.0,0.0,82,0.00,CLR,,0.00,0.0,WeatherDisplay:10.37,2013-01-17 06:59:00,
2013-01-17 01:04:00,27.6,23.1,30.26,West,266,0.0,0.0,83,0.00,CLR,,0.00,0.0,WeatherDisplay:10.37,2013-01-17 07:04:00,
2013-01-17 01:09:00,27.7,23.5,30.26,West,266,0.0,0.0,84,0.00,CLR,,0.00,0.0,WeatherDisplay:10.37,2013-01-17 07:09:00,
2013-01-17 01:14:00,28.3,23.8,30.26,West,266,0.0,0.0,83,0.00,CLR,,0.00,0.0,WeatherDisplay:10.37,2013-01-17 07:14:00,
2013-01-17 01:19:00,27.6,23.4,30.26,West,266,0.0,0.0,84,0.00,CLR,,0.00,0.0,WeatherDisplay:10.37,2013-01-17 07:19:00,
2013-01-17 01:24:00,27.9,23.4,30.26,West,266,0.0,0.0,83,0.00,CLR,,0.00,0.0,WeatherDisplay:10.37,2013-01-17 07:24:00,
2013-01-17 01:29:00,28.4,23.6,30.26,West,266,3.2,4.6,82,0.00,CLR,,0.00,0.0,WeatherDisplay:10.37,2013-01-17 07:29:00,
2013-01-17 01:34:00,28.9,22.9,30.27,West,266,3.2,3.5,78,0.00,CLR,,0.00,0.0,WeatherDisplay:10.37,2013-01-17 07:34:00,
2013-01-17 01:39:00,31.1,22.8,30.27,West,266,4.3,4.6,71,0.00,CLR,,0.00,0.0,WeatherDisplay:10.37,2013-01-17 07:39:00,
2013-01-17 01:44:00,32.5,23.8,30.27,West,266,3.5,7.0,70,0.00,CLR,,0.00,0.0,WeatherDisplay:10.37,2013-01-17 07:44:00,
2013-01-17 01:49:00,31.8,23.5,30.27,West,267,3.4,5.8,71,0.00,CLR,,0.00,0.0,WeatherDisplay:10.37,2013-01-17 07:49:00,
2013-01-17 01:54:00,29.9,23.6,30.27,West,267,3.3,4.6,77,0.00,CLR,,0.00,0.0,WeatherDisplay:10.37,2013-01-17 07:54:00,
2013-01-17 01:59:00,30.2,23.2,30.27,West,267,2.7,3.5,75,0.00,CLR,,0.00,0.0,WeatherDisplay:10.37,2013-01-17 07:59:00,
2013-01-17 02:04:00,27.9,22.2,30.28,West,267,2.5,4.6,79,0.00,CLR,,0.00,0.0,WeatherDisplay:10.37,2013-01-17 08:04:00,
2013-01-17 02:09:00,26.8,22.3,30.28,West,267,2.1,4.6,83,0.00,CLR,,0.00,0.0,WeatherDisplay:10.37,2013-01-17 08:09:00,
2013-01-17 02:14:00,27.0,22.5,30.28,West,267,3.0,4.6,83,0.00,CLR,,0.00,0.0,WeatherDisplay:10.37,2013-01-17 08:14:00,
2013-01-17 02:19:00,26.5,22.6,30.28,West,267,4.1,4.6,85,0.00,CLR,,0.00,0.0,WeatherDisplay:10.37,2013-01-17 08:19:00,
2013-01-17 02:24:00,27.9,23.7,30.28,West,267,3.3,5.0,84,0.00,CLR,,0.00,0.0,WeatherDisplay:10.37,2013-01-17 08:24:00,
2013-01-17 02:29:00,28.4,23.3,30.28,West,267,3.8,4.6,81,0.00,CLR,,0.00,0.0,WeatherDisplay:10.37,2013-01-17 08:29:00,
2013-01-17 02:34:00,28.8,23.4,30.28,West,267,2.2,3.5,80,0.00,CLR,,0.00,0.0,WeatherDisplay:10.37,2013-01-17 08:34:00,
2013-01-17 02:39:00,28.7,24.2,30.28,West,267,3.7,4.6,83,0.00,CLR,,0.00,0.0,WeatherDisplay:10.37,2013-01-17 08:39:00,
2013-01-17 02:44:00,27.8,22.7,30.28,West,267,3.0,4.6,81,0.00,CLR,,0.00,0.0,WeatherDisplay:10.37,2013-01-17 08:44:00,
2013-01-17 02:49:00,28.4,23.3,30.28,West,267,3.0,3.5,81,0.00,CLR,,0.00,0.0,WeatherDisplay:10.37,2013-01-17 08:49:00,
2013-01-17 02:54:00,30.0,24.0,30.28,West,267,3.0,3.5,78,0.00,CLR,,0.00,0.0,WeatherDisplay:10.37,2013-01-17 08:54:00,
2013-01-17 02:59:00,32.0,24.3,30.29,West,267,3.3,5.8,73,0.00,CLR,,0.00,0.0,WeatherDisplay:10.37,2013-01-17 08:59:00,
2013-01-17 03:04:00,33.6,23.8,30.29,West,267,3.8,4.6,67,0.00,CLR,,0.00,0.0,WeatherDisplay:10.37,2013-01-17 09:04:00,
2013-01-17 03:09:00,34.0,24.2,30.29,West,267,3.9,6.9,67,0.00,CLR,,0.00,0.0,WeatherDisplay:10.37,2013-01-17 09:09:00,
2013-01-17 03:14:00,34.4,24.2,30.29,West,267,3.5,5.8,66,0.00,CLR,,0.00,0.0,WeatherDisplay:10.37,2013-01-17 09:14:00,
2013-01-17 03:19:00,34.6,24.0,30.29,West,268,2.7,5.8,65,0.00,CLR,,0.00,0.0,WeatherDisplay:10.37,2013-01-17 09:19:00,
2013-01-17 03:24:00,31.3,23.0,30.28,West,268,2.2,4.0,71,0.00,CLR,,0.00,0.0,WeatherDisplay:10.37,2013-01-17 09:24:00,
2013-01-17 03:29:00,29.1,23.4,30.29,West,268,4.3,7.0,79,0.00,CLR,,0.00,0.0,WeatherDisplay:10.37,2013-01-17 09:29:00,
2013-01-17 03:34:00,31.4,24.4,30.28,West,268,3.8,4.6,75,0.00,CLR,,0.00,0.0,WeatherDisplay:10.37,2013-01-17 09:34:00,
2013-01-17 03:39:00,31.1,24.4,30.29,West,268,4.3,4.6,76,0.00,CLR,,0.00,0.0,WeatherDisplay:10.37,2013-01-17 09:39:00,
2013-01-17 03:44:00,29.8,23.8,30.29,West,268,0.8,3.5,78,0.00,CLR,,0.00,0.0,WeatherDisplay:10.37,2013-01-17 09:44:00,
2013-01-17 03:49:00,27.5,22.4,30.29,West,268,1.4,3.5,81,0.00,CLR,,0.00,0.0,WeatherDisplay:10.37,2013-01-17 09:49:00,
2013-01-17 03:54:00,27.8,22.7,30.29,West,268,2.5,4.6,81,0.00,CLR,,0.00,0.0,WeatherDisplay:10.37,2013-01-17 09:54:00,
2013-01-17 03:59:00,28.8,23.4,30.29,West,268,3.4,5.8,80,0.00,CLR,,0.00,0.0,WeatherDisplay:10.37,2013-01-17 09:59:00,
2013-01-17 04:04:00,28.3,22.9,30.29,West,269,3.5,4.6,80,0.00,CLR,,0.00,0.0,WeatherDisplay:10.37,2013-01-17 10:04:00,
2013-01-17 04:09:00,27.3,22.5,30.29,West,269,4.0,5.8,82,0.00,CLR,,0.00,0.0,WeatherDisplay:10.37,2013-01-17 10:09:00,
2013-01-17 04:14:00,28.0,23.5,30.29,West,270,0.3,1.1,83,0.00,CLR,,0.00,0.0,WeatherDisplay:10.37,2013-01-17 10:14:00,
2013-01-17 04:19:00,28.8,23.7,30.30,West,270,2.1,4.0,81,0.00,CLR,,0.00,0.0,WeatherDisplay:10.37,2013-01-17 10:19:00,
2013-01-17 04:24:00,28.4,23.3,30.30,West,271,4.1,5.8,81,0.00,CLR,,0.00,0.0,WeatherDisplay:10.37,2013-01-17 10:24:00,
2013-01-17 04:29:00,28.0,22.6,30.30,WNW,282,2.6,6.9,80,0.00,CLR,,0.00,0.0,WeatherDisplay:10.37,2013-01-17 10:29:00,
2013-01-17 04:34:00,28.0,22.9,30.30,WNW,282,3.4,5.8,81,0.00,CLR,,0.00,0.0,WeatherDisplay:10.37,2013-01-17 10:34:00,
2013-01-17 04:39:00,26.8,22.6,30.30,WNW,284,3.2,5.8,84,0.00,CLR,,0.00,0.0,WeatherDisplay:10.37,2013-01-17 10:39:00,
2013-01-17 04:44:00,26.6,22.7,30.30,WNW,284,2.7,4.6,85,0.00,CLR,,0.00,0.0,WeatherDisplay:10.37,2013-01-17 10:44:00,
2013-01-17 04:49:00,28.3,23.8,30.30,WNW,284,2.8,4.6,83,0.00,CLR,,0.00,0.0,WeatherDisplay:10.37,2013-01-17 10:49:00,
2013-01-17 04:54:00,28.4,23.6,30.30,WNW,284,0.3,2.3,82,0.00,CLR,,0.00,0.0,WeatherDisplay:10.37,2013-01-17 10:54:00,
2013-01-17 04:59:00,26.7,22.8,30.30,WNW,284,0.0,1.1,85,0.00,CLR,,0.00,0.0,WeatherDisplay:10.37,2013-01-17 10:59:00,
2013-01-17 05:04:00,27.4,23.5,30.31,WNW,284,0.0,0.0,85,0.00,CLR,,0.00,0.0,WeatherDisplay:10.37,2013-01-17 11:04:00,
2013-01-17 05:09:00,29.0,24.2,30.31,WNW,284,3.3,4.6,82,0.00,CLR,,0.00,0.0,WeatherDisplay:10.37,2013-01-17 11:09:00,
2013-01-17 05:14:00,30.8,25.7,30.31,NNW,334,5.3,6.9,81,0.00,CLR,,0.00,0.0,WeatherDisplay:10.37,2013-01-17 11:14:00,
2013-01-17 05:19:00,33.5,28.0,30.31,NNW,343,6.1,7.0,80,0.00,CLR,,0.00,0.0,WeatherDisplay:10.37,2013-01-17 11:19:00,
2013-01-17 05:25:00,35.2,29.0,30.31,NNW,346,5.9,8.1,78,0.00,CLR,,0.00,0.0,WeatherDisplay:10.37,2013-01-17 11:25:00,
2013-01-17 05:30:00,37.1,29.9,30.31,North,351,5.9,9.2,75,0.00,CLR,,0.00,0.0,WeatherDisplay:10.37,2013-01-17 11:30:00,
2013-01-17 05:35:00,36.2,29.4,30.32,North,349,3.8,8.1,76,0.00,CLR,,0.00,0.0,WeatherDisplay:10.37,2013-01-17 11:35:00,
2013-01-17 05:40:00,37.1,29.6,30.32,NNW,336,4.6,8.1,74,0.00,CLR,,0.00,0.0,WeatherDisplay:10.37,2013-01-17 11:40:00,
2013-01-17 05:45:00,37.1,29.9,30.32,NNW,334,5.2,8.1,75,0.00,CLR,,0.00,0.0,WeatherDisplay:10.37,2013-01-17 11:45:00,
2013-01-17 05:50:00,37.3,30.1,30.32,NNW,334,6.2,8.1,75,0.00,CLR,,0.00,0.0,WeatherDisplay:10.37,2013-01-17 11:50:00,
2013-01-17 05:55:00,36.9,29.7,30.32,NNW,334,4.8,6.9,75,0.00,CLR,,0.00,0.0,WeatherDisplay:10.37,2013-01-17 11:55:00,
2013-01-17 06:00:00,36.8,29.6,30.32,NNW,329,4.3,7.0,75,0.00,CLR,,0.00,0.0,WeatherDisplay:10.37,2013-01-17 12:00:00,
2013-01-17 06:05:00,37.3,29.8,30.32,NNW,348,5.4,8.1,74,0.00,CLR,,0.00,0.0,WeatherDisplay:10.37,2013-01-17 12:05:00,
2013-01-17 06:10:00,36.7,29.8,30.33,NW,313,2.6,5.0,76,0.00,CLR,,0.00,0.0,WeatherDisplay:10.37,2013-01-17 12:10:00,
2013-01-17 06:15:00,36.0,29.2,30.33,NW,314,4.9,6.9,76,0.00,CLR,,0.00,0.0,WeatherDisplay:10.37,2013-01-17 12:15:00,
2013-01-17 06:20:00,35.9,29.1,30.33,NW,314,3.2,4.6,76,0.00,CLR,,0.00,0.0,WeatherDisplay:10.37,2013-01-17 12:20:00,
2013-01-17 06:25:00,35.3,28.8,30.33,NW,322,5.3,7.0,77,0.00,CLR,,0.00,0.0,WeatherDisplay:10.37,2013-01-17 12:25:00,
2013-01-17 06:30:00,34.7,28.5,30.34,NW,322,6.0,6.9,78,0.00,CLR,,0.00,0.0,WeatherDisplay:10.37,2013-01-17 12:30:00,
2013-01-17 06:35:00,34.7,28.2,30.34,NW,325,5.2,8.1,77,0.00,CLR,,0.00,0.0,WeatherDisplay:10.37,2013-01-17 12:35:00,
2013-01-17 06:40:00,34.6,28.4,30.34,NNW,347,5.8,8.1,78,0.00,CLR,,0.00,0.0,WeatherDisplay:10.37,2013-01-17 12:40:00,
2013-01-17 06:45:00,35.8,29.3,30.34,NNW,345,5.3,6.9,77,0.00,CLR,,0.00,0.0,WeatherDisplay:10.37,2013-01-17 12:45:00,
2013-01-17 06:50:00,36.3,29.8,30.35,North,351,6.6,11.5,77,0.00,CLR,,0.00,0.0,WeatherDisplay:10.37,2013-01-17 12:50:00,
2013-01-17 06:55:00,36.8,29.9,30.35,NNW,343,8.6,12.7,76,0.00,CLR,,0.00,0.0,WeatherDisplay:10.37,2013-01-17 12:55:00,
2013-01-17 07:00:00,36.5,30.0,30.36,NNW,345,8.5,11.5,77,0.00,CLR,,0.00,0.0,WeatherDisplay:10.37,2013-01-17 13:00:00,
2013-01-17 07:05:00,37.0,29.8,30.36,North,356,7.0,11.5,75,0.00,CLR,,0.00,0.0,WeatherDisplay:10.37,2013-01-17 13:05:00,
2013-01-17 07:10:00,36.9,29.4,30.36,North,351,7.0,12.7,74,0.00,CLR,,0.00,0.0,WeatherDisplay:10.37,2013-01-17 13:10:00,
2013-01-17 07:15:00,36.7,29.5,30.36,North,1,5.6,11.5,75,0.00,CLR,,0.00,0.0,WeatherDisplay:10.37,2013-01-17 13:15:00,
2013-01-17 07:20:00,36.7,29.8,30.37,North,356,8.2,11.5,76,0.00,CLR,,0.00,0.0,WeatherDisplay:10.37,2013-01-17 13:20:00,
2013-01-17 07:25:00,36.6,29.7,30.37,North,356,7.5,10.4,76,0.00,CLR,,0.00,0.0,WeatherDisplay:10.37,2013-01-17 13:25:00,
2013-01-17 07:30:00,36.5,29.7,30.38,North,6,7.1,11.5,76,0.00,CLR,,0.00,0.0,WeatherDisplay:10.37,2013-01-17 13:30:00,
2013-01-17 07:35:00,36.5,29.7,30.38,North,11,6.4,11.5,76,0.00,CLR,,0.00,5.5,WeatherDisplay:10.37,2013-01-17 13:35:00,
2013-01-17 07:40:00,36.3,29.5,30.38,North,356,5.9,10.4,76,0.00,CLR,,0.00,7.7,WeatherDisplay:10.37,2013-01-17 13:40:00,
2013-01-17 07:45:00,36.2,29.4,30.38,North,356,3.6,9.2,76,0.00,CLR,,0.00,9.9,WeatherDisplay:10.37,2013-01-17 13:45:00,
2013-01-17 07:50:00,36.3,29.5,30.38,North,356,6.9,11.5,76,0.00,CLR,,0.00,12.1,WeatherDisplay:10.37,2013-01-17 13:50:00,
2013-01-17 07:55:00,36.3,29.5,30.39,NNE,14,6.6,12.7,76,0.00,CLR,,0.00,15.4,WeatherDisplay:10.37,2013-01-17 13:55:00,
2013-01-17 08:00:00,36.7,29.8,30.39,NNE,17,6.2,11.5,76,0.00,CLR,,0.00,17.6,WeatherDisplay:10.37,2013-01-17 14:00:00,
2013-01-17 08:05:00,36.5,29.7,30.39,North,6,7.0,9.2,76,0.00,CLR,,0.00,19.8,WeatherDisplay:10.37,2013-01-17 14:05:00,
2013-01-17 08:10:00,36.9,29.7,30.40,NNE,13,4.8,10.4,75,0.00,CLR,,0.00,20.9,WeatherDisplay:10.37,2013-01-17 14:10:00,
2013-01-17 08:15:00,37.0,29.8,30.40,NNE,18,2.7,9.2,75,0.00,CLR,,0.00,23.1,WeatherDisplay:10.37,2013-01-17 14:15:00,
2013-01-17 08:20:00,37.9,30.4,30.40,North,10,6.2,9.2,74,0.00,CLR,,0.00,23.1,WeatherDisplay:10.37,2013-01-17 14:20:00,
2013-01-17 08:25:00,38.2,30.3,30.40,North,6,5.5,8.1,73,0.00,CLR,,0.00,25.3,WeatherDisplay:10.37,2013-01-17 14:25:00,
2013-01-17 08:30:00,38.8,30.9,30.40,NNE,21,6.1,8.1,73,0.00,CLR,,0.00,27.5,WeatherDisplay:10.37,2013-01-17 14:30:00,
2013-01-17 08:35:00,39.2,30.9,30.40,North,356,7.8,11.5,72,0.00,CLR,,0.00,28.6,WeatherDisplay:10.37,2013-01-17 14:35:00,
2013-01-17 08:40:00,39.6,30.6,30.41,NNE,16,5.3,9.2,70,0.00,CLR,,0.00,28.6,WeatherDisplay:10.37,2013-01-17 14:40:00,
2013-01-17 08:45:00,40.1,31.1,30.41,NNW,344,6.6,9.2,70,0.00,CLR,,0.00,30.8,WeatherDisplay:10.37,2013-01-17 14:45:00,
2013-01-17 08:50:00,40.6,31.2,30.42,North,349,6.0,11.5,69,0.00,CLR,,0.00,33.0,WeatherDisplay:10.37,2013-01-17 14:50:00,
2013-01-17 08:55:00,41.0,31.6,30.42,NNE,31,7.4,12.0,69,0.00,CLR,,0.00,115.5,WeatherDisplay:10.37,2013-01-17 14:55:00,
2013-01-17 09:00:00,41.3,31.2,30.42,NNE,19,9.9,12.0,67,0.00,CLR,,0.00,89.1,WeatherDisplay:10.37,2013-01-17 15:00:00,
2013-01-17 09:05:00,41.5,31.7,30.42,NNE,23,8.8,19.6,68,0.00,CLR,,0.00,92.4,WeatherDisplay:10.37,2013-01-17 15:05:00,
2013-01-17 09:10:00,41.4,31.6,30.42,North,1,4.3,11.5,68,0.00,CLR,,0.00,68.2,WeatherDisplay:10.37,2013-01-17 15:10:00,
2013-01-17 09:15:00,41.8,32.0,30.42,NE,43,5.0,12.0,68,0.00,CLR,,0.00,59.4,WeatherDisplay:10.37,2013-01-17 15:15:00,
2013-01-17 09:20:00,41.7,31.5,30.42,North,349,10.4,16.1,67,0.00,CLR,,0.00,63.8,WeatherDisplay:10.37,2013-01-17 15:20:00,
2013-01-17 09:25:00,41.8,31.6,30.43,NE,41,6.9,11.5,67,0.00,CLR,,0.00,125.4,WeatherDisplay:10.37,2013-01-17 15:25:00,
2013-01-17 09:30:00,42.1,31.6,30.44,North,349,10.4,13.8,66,0.00,CLR,,0.00,206.8,WeatherDisplay:10.37,2013-01-17 15:30:00,
2013-01-17 09:35:00,42.9,31.9,30.44,North,1,9.6,12.7,65,0.00,CLR,,0.00,247.5,WeatherDisplay:10.37,2013-01-17 15:35:00,
2013-01-17 09:40:00,42.6,31.7,30.44,NE,41,6.8,13.8,65,0.00,CLR,,0.00,276.1,WeatherDisplay:10.37,2013-01-17 15:40:00,
2013-01-17 09:45:00,43.6,32.6,30.44,NNE,17,8.2,10.4,65,0.00,CLR,,0.00,371.8,WeatherDisplay:10.37,2013-01-17 15:45:00,
2013-01-17 09:50:00,44.1,32.7,30.44,NNE,19,4.8,8.1,64,0.00,CLR,,0.00,387.2,WeatherDisplay:10.37,2013-01-17 15:50:00,
2013-01-17 09:55:00,43.3,31.5,30.45,NNE,29,9.3,15.0,63,0.00,CLR,,0.00,400.4,WeatherDisplay:10.37,2013-01-17 15:55:00,
2013-01-17 10:00:00,44.3,32.5,30.45,NNE,25,7.6,12.7,63,0.00,CLR,,0.00,413.6,WeatherDisplay:10.37,2013-01-17 16:00:00,
2013-01-17 10:05:00,44.1,31.9,30.45,NNE,20,10.7,17.3,62,0.00,CLR,,0.00,429.0,WeatherDisplay:10.37,2013-01-17 16:05:00,
2013-01-17 10:10:00,45.1,32.4,30.45,NNE,25,6.3,9.2,61,0.00,CLR,,0.00,443.3,WeatherDisplay:10.37,2013-01-17 16:10:00,
2013-01-17 10:15:00,44.9,32.3,30.45,North,1,9.7,13.8,61,0.00,CLR,,0.00,456.5,WeatherDisplay:10.37,2013-01-17 16:15:00,
2013-01-17 10:20:00,46.0,33.3,30.46,NNE,31,8.1,11.5,61,0.00,CLR,,0.00,469.7,WeatherDisplay:10.37,2013-01-17 16:20:00,
2013-01-17 10:25:00,45.6,32.5,30.46,NE,37,9.8,17.3,60,0.00,CLR,,0.00,481.8,WeatherDisplay:10.37,2013-01-17 16:25:00,
2013-01-17 10:30:00,46.8,33.2,30.46,NNE,29,2.6,7.0,59,0.00,CLR,,0.00,492.8,WeatherDisplay:10.37,2013-01-17 16:30:00,
2013-01-17 10:35:00,45.9,32.4,30.46,NNE,19,11.4,16.1,59,0.00,CLR,,0.00,504.9,WeatherDisplay:10.37,2013-01-17 16:35:00,
2013-01-17 10:40:00,46.1,32.6,30.46,NNE,15,7.5,15.0,59,0.00,CLR,,0.00,518.1,WeatherDisplay:10.37,2013-01-17 16:40:00,
2013-01-17 10:45:00,46.7,32.7,30.47,NE,42,9.0,13.8,58,0.00,CLR,,0.00,528.0,WeatherDisplay:10.37,2013-01-17 16:45:00,
2013-01-17 10:50:00,46.8,33.2,30.46,NNE,26,6.1,11.0,59,0.00,CLR,,0.00,539.0,WeatherDisplay:10.37,2013-01-17 16:50:00,
2013-01-17 10:55:00,47.0,33.0,30.46,NNE,23,9.9,17.3,58,0.00,CLR,,0.00,548.9,WeatherDisplay:10.37,2013-01-17 16:55:00,
2013-01-17 11:00:00,47.1,32.2,30.46,NE,36,8.3,13.8,56,0.00,CLR,,0.00,561.0,WeatherDisplay:10.37,2013-01-17 17:00:00,
2013-01-17 11:05:00,47.9,33.4,30.45,NNE,29,4.9,10.4,57,0.00,CLR,,0.00,572.0,WeatherDisplay:10.37,2013-01-17 17:05:00,
2013-01-17 11:10:00,48.4,33.0,30.45,NNE,19,10.4,13.0,55,0.00,CLR,,0.00,578.6,WeatherDisplay:10.37,2013-01-17 17:10:00,
2013-01-17 11:15:00,49.1,33.2,30.45,NNE,25,3.1,12.7,54,0.00,CLR,,0.00,587.4,WeatherDisplay:10.37,2013-01-17 17:15:00,
2013-01-17 11:20:00,49.9,33.4,30.45,NE,37,9.2,15.0,53,0.00,CLR,,0.00,595.1,WeatherDisplay:10.37,2013-01-17 17:20:00,
2013-01-17 11:25:00,49.9,33.0,30.45,NNE,28,7.1,13.8,52,0.00,CLR,,0.00,601.7,WeatherDisplay:10.37,2013-01-17 17:25:00,
2013-01-17 11:30:00,49.9,32.5,30.45,NNE,33,11.2,16.1,51,0.00,CLR,,0.00,612.7,WeatherDisplay:10.37,2013-01-17 17:30:00,
2013-01-17 11:35:00,50.5,34.5,30.45,NNW,343,4.5,8.1,54,0.00,CLR,,0.00,617.1,WeatherDisplay:10.37,2013-01-17 17:35:00,
2013-01-17 11:40:00,51.9,33.8,30.45,North,350,5.1,11.5,50,0.00,CLR,,0.00,622.6,WeatherDisplay:10.37,2013-01-17 17:40:00,
2013-01-17 11:45:00,51.2,33.2,30.44,NNE,18,6.3,10.4,50,0.00,CLR,,0.00,630.3,WeatherDisplay:10.37,2013-01-17 17:45:00,
2013-01-17 11:50:00,51.6,33.0,30.44,NNE,27,8.8,14.0,49,0.00,CLR,,0.00,635.8,WeatherDisplay:10.37,2013-01-17 17:50:00,
2013-01-17 11:55:00,52.2,33.1,30.44,NE,54,8.6,12.0,48,0.00,CLR,,0.00,642.4,WeatherDisplay:10.37,2013-01-17 17:55:00,
2013-01-17 12:00:00,52.8,33.1,30.44,NE,46,8.5,15.0,47,0.00,CLR,,0.00,645.7,WeatherDisplay:10.37,2013-01-17 18:00:00,
2013-01-17 12:05:00,52.9,32.1,30.44,NNE,17,8.1,11.5,45,0.00,CLR,,0.00,651.2,WeatherDisplay:10.37,2013-01-17 18:05:00,
2013-01-17 12:10:00,52.2,32.0,30.44,NNE,20,9.4,16.1,46,0.00,CLR,,0.00,651.2,WeatherDisplay:10.37,2013-01-17 18:10:00,
2013-01-17 12:15:00,54.1,33.2,30.44,NE,37,2.6,10.4,45,0.00,CLR,,0.00,655.6,WeatherDisplay:10.37,2013-01-17 18:15:00,
2013-01-17 12:20:00,53.2,31.8,30.44,NNE,29,5.8,6.9,44,0.00,CLR,,0.00,657.8,WeatherDisplay:10.37,2013-01-17 18:20:00,
2013-01-17 12:25:00,54.5,33.6,30.44,NNE,23,4.3,10.4,45,0.00,CLR,,0.00,663.3,WeatherDisplay:10.37,2013-01-17 18:25:00,
2013-01-17 12:30:00,55.1,34.1,30.43,North,351,5.8,7.0,45,0.00,CLR,,0.00,658.9,WeatherDisplay:10.37,2013-01-17 18:30:00,
2013-01-17 12:35:00,53.7,31.7,30.44,NNE,19,6.2,10.4,43,0.00,CLR,,0.00,663.3,WeatherDisplay:10.37,2013-01-17 18:35:00,
2013-01-17 12:40:00,54.3,32.3,30.43,North,6,4.0,5.8,43,0.00,CLR,,0.00,665.5,WeatherDisplay:10.37,2013-01-17 18:40:00,
2013-01-17 12:45:00,54.6,31.9,30.43,North,352,7.2,9.0,42,0.00,CLR,,0.00,665.5,WeatherDisplay:10.37,2013-01-17 18:45:00,
2013-01-17 12:50:00,53.3,31.4,30.43,NNW,345,7.7,11.5,43,0.00,CLR,,0.00,663.3,WeatherDisplay:10.37,2013-01-17 18:50:00,
2013-01-17 12:55:00,53.5,31.5,30.43,NNE,16,10.9,15.0,43,0.00,CLR,,0.00,661.1,WeatherDisplay:10.37,2013-01-17 18:55:00,
2013-01-17 13:00:00,53.6,31.0,30.43,NNE,15,9.2,12.0,42,0.00,CLR,,0.00,661.1,WeatherDisplay:10.37,2013-01-17 19:00:00,
2013-01-17 13:05:00,53.8,31.2,30.42,NNW,343,10.3,11.5,42,0.00,CLR,,0.00,661.1,WeatherDisplay:10.37,2013-01-17 19:05:00,
2013-01-17 13:10:00,55.3,32.0,30.42,NNW,345,4.8,15.0,41,0.00,CLR,,0.00,655.6,WeatherDisplay:10.37,2013-01-17 19:10:00,
2013-01-17 13:15:00,53.7,31.1,30.42,North,349,9.8,12.7,42,0.00,CLR,,0.00,655.6,WeatherDisplay:10.37,2013-01-17 19:15:00,
2013-01-17 13:20:00,55.4,32.1,30.42,NNW,334,6.9,10.4,41,0.00,CLR,,0.00,650.1,WeatherDisplay:10.37,2013-01-17 19:20:00,
2013-01-17 13:25:00,54.6,31.3,30.42,NNW,343,5.5,6.9,41,0.00,CLR,,0.00,647.9,WeatherDisplay:10.37,2013-01-17 19:25:00,
2013-01-17 13:30:00,55.1,31.8,30.42,NNW,334,10.6,14.0,41,0.00,CLR,,0.00,643.5,WeatherDisplay:10.37,2013-01-17 19:30:00,
2013-01-17 13:35:00,55.7,31.7,30.42,North,6,7.8,11.0,40,0.00,CLR,,0.00,638.0,WeatherDisplay:10.37,2013-01-17 19:35:00,
2013-01-17 13:40:00,56.1,32.1,30.42,NNW,348,2.5,8.1,40,0.00,CLR,,0.00,632.5,WeatherDisplay:10.37,2013-01-17 19:40:00,
2013-01-17 13:45:00,54.7,30.8,30.42,North,356,8.4,12.7,40,0.00,CLR,,0.00,627.0,WeatherDisplay:10.37,2013-01-17 19:45:00,
2013-01-17 13:50:00,55.3,31.4,30.42,North,6,4.6,11.5,40,0.00,CLR,,0.00,620.4,WeatherDisplay:10.37,2013-01-17 19:50:00,
2013-01-17 13:55:00,55.9,31.3,30.41,NNW,330,7.7,13.8,39,0.00,CLR,,0.00,614.9,WeatherDisplay:10.37,2013-01-17 19:55:00,
2013-01-17 14:00:00,55.3,30.7,30.41,North,356,7.9,9.2,39,0.00,CLR,,0.00,607.2,WeatherDisplay:10.37,2013-01-17 20:00:00,
2013-01-17 14:05:00,56.2,31.5,30.41,NNW,330,6.7,10.4,39,0.00,CLR,,0.00,601.7,WeatherDisplay:10.37,2013-01-17 20:05:00,
2013-01-17 14:10:00,56.1,31.5,30.41,North,356,7.2,12.7,39,0.00,CLR,,0.00,563.2,WeatherDisplay:10.37,2013-01-17 20:10:00,
2013-01-17 14:15:00,55.9,31.3,30.41,North,1,4.9,10.4,39,0.00,CLR,,0.00,316.8,WeatherDisplay:10.37,2013-01-17 20:15:00,
2013-01-17 14:20:00,56.6,31.9,30.41,North,356,6.1,12.0,39,0.00,CLR,,0.00,489.5,WeatherDisplay:10.37,2013-01-17 20:20:00,
2013-01-17 14:25:00,56.3,30.3,30.41,NW,324,8.0,8.1,37,0.00,CLR,,0.00,568.7,WeatherDisplay:10.37,2013-01-17 20:25:00,
2013-01-17 14:30:00,55.4,30.2,30.41,NE,36,10.2,12.7,38,0.00,CLR,,0.00,556.6,WeatherDisplay:10.37,2013-01-17 20:30:00,
2013-01-17 14:35:00,56.3,31.0,30.41,NNW,334,6.8,10.4,38,0.00,CLR,,0.00,548.9,WeatherDisplay:10.37,2013-01-17 20:35:00,
2013-01-17 14:40:00,56.4,31.1,30.41,NW,325,6.2,8.1,38,0.00,CLR,,0.00,537.9,WeatherDisplay:10.37,2013-01-17 20:40:00,
2013-01-17 14:45:00,55.9,31.3,30.41,North,10,5.6,6.9,39,0.00,CLR,,0.00,525.8,WeatherDisplay:10.37,2013-01-17 20:45:00,
2013-01-17 14:50:00,55.5,30.9,30.41,North,356,11.1,15.0,39,0.00,CLR,,0.00,514.8,WeatherDisplay:10.37,2013-01-17 20:50:00,
2013-01-17 14:55:00,55.8,29.9,30.41,NNW,331,1.9,5.8,37,0.00,CLR,,0.00,413.6,WeatherDisplay:10.37,2013-01-17 20:55:00,
2013-01-17 15:00:00,55.9,30.6,30.41,NW,319,10.8,12.7,38,0.00,CLR,,0.00,71.5,WeatherDisplay:10.37,2013-01-17 21:00:00,
2013-01-17 15:05:00,56.0,30.7,30.41,North,1,6.7,8.0,38,0.00,CLR,,0.00,477.4,WeatherDisplay:10.37,2013-01-17 21:05:00,
2013-01-17 15:10:00,56.2,31.5,30.41,NNW,345,9.8,13.8,39,0.00,CLR,,0.00,44.0,WeatherDisplay:10.37,2013-01-17 21:10:00,
2013-01-17 15:15:00,56.2,31.5,30.41,North,6,4.5,10.4,39,0.00,CLR,,0.00,42.9,WeatherDisplay:10.37,2013-01-17 21:15:00,
2013-01-17 15:20:00,56.1,30.8,30.41,North,356,1.2,4.6,38,0.00,CLR,,0.00,42.9,WeatherDisplay:10.37,2013-01-17 21:20:00,
2013-01-17 15:25:00,56.1,30.8,30.41,NNE,15,7.7,12.7,38,0.00,CLR,,0.00,40.7,WeatherDisplay:10.37,2013-01-17 21:25:00,
2013-01-17 15:30:00,56.0,30.7,30.41,North,356,3.2,11.5,38,0.00,CLR,,0.00,51.7,WeatherDisplay:10.37,2013-01-17 21:30:00,
2013-01-17 15:35:00,56.1,31.5,30.41,NNW,348,3.1,7.0,39,0.00,CLR,,0.00,89.1,WeatherDisplay:10.37,2013-01-17 21:35:00,
2013-01-17 15:40:00,55.9,30.6,30.41,North,351,7.2,10.4,38,0.00,CLR,,0.00,48.4,WeatherDisplay:10.37,2013-01-17 21:40:00,
2013-01-17 15:45:00,56.3,31.6,30.41,North,349,3.3,5.8,39,0.00,CLR,,0.00,38.5,WeatherDisplay:10.37,2013-01-17 21:45:00,
2013-01-17 15:50:00,55.2,30.0,30.41,North,350,4.6,10.4,38,0.00,CLR,,0.00,42.9,WeatherDisplay:10.37,2013-01-17 21:50:00,
2013-01-17 15:55:00,55.8,31.2,30.41,NW,326,5.1,8.1,39,0.00,CLR,,0.00,44.0,WeatherDisplay:10.37,2013-01-17 21:55:00,
2013-01-17 16:00:00,55.8,30.5,30.41,North,356,6.0,11.5,38,0.00,CLR,,0.00,44.0,WeatherDisplay:10.37,2013-01-17 22:00:00,
2013-01-17 16:05:00,55.9,30.6,30.42,North,6,1.6,2.3,38,0.00,CLR,,0.00,107.8,WeatherDisplay:10.37,2013-01-17 22:05:00,
2013-01-17 16:10:00,55.7,30.5,30.42,North,356,7.4,11.5,38,0.00,CLR,,0.00,48.4,WeatherDisplay:10.37,2013-01-17 22:10:00,
2013-01-17 16:15:00,55.5,30.3,30.42,North,356,4.0,5.8,38,0.00,CLR,,0.00,35.2,WeatherDisplay:10.37,2013-01-17 22:15:00,
2013-01-17 16:20:00,55.4,31.5,30.42,North,1,4.0,5.0,40,0.00,CLR,,0.00,36.3,WeatherDisplay:10.37,2013-01-17 22:20:00,
2013-01-17 16:25:00,55.4,30.2,30.42,NE,37,5.5,9.2,38,0.00,CLR,,0.00,42.9,WeatherDisplay:10.37,2013-01-17 22:25:00,
2013-01-17 16:30:00,55.2,30.7,30.42,NE,36,5.9,7.0,39,0.00,CLR,,0.00,35.2,WeatherDisplay:10.37,2013-01-17 22:30:00,
2013-01-17 16:35:00,54.9,29.7,30.42,NNE,32,5.2,6.9,38,0.00,CLR,,0.00,33.0,WeatherDisplay:10.37,2013-01-17 22:35:00,
2013-01-17 16:40:00,54.5,30.6,30.42,NE,45,3.7,5.8,40,0.00,CLR,,0.00,30.8,WeatherDisplay:10.37,2013-01-17 22:40:00,
2013-01-17 16:45:00,53.8,31.2,30.42,NE,50,4.0,8.0,42,0.00,CLR,,0.00,30.8,WeatherDisplay:10.37,2013-01-17 22:45:00,
2013-01-17 16:50:00,54.3,30.5,30.42,NE,47,5.3,7.0,40,0.00,CLR,,0.00,33.0,WeatherDisplay:10.37,2013-01-17 22:50:00,
2013-01-17 16:55:00,54.0,30.8,30.42,NE,47,5.2,8.1,41,0.00,CLR,,0.00,33.0,WeatherDisplay:10.37,2013-01-17 22:55:00,
2013-01-17 17:00:00,53.8,30.6,30.42,NNE,23,4.3,6.9,41,0.00,CLR,,0.00,48.4,WeatherDisplay:10.37,2013-01-17 23:00:00,
2013-01-17 17:05:00,53.7,30.5,30.42,NNE,31,5.6,10.4,41,0.00,CLR,,0.00,30.8,WeatherDisplay:10.37,2013-01-17 23:05:00,
2013-01-17 17:10:00,53.2,30.7,30.42,NNE,27,3.6,6.0,42,0.00,CLR,,0.00,23.1,WeatherDisplay:10.37,2013-01-17 23:10:00,
2013-01-17 17:15:00,52.8,30.3,30.42,NNE,17,1.3,3.5,42,0.00,CLR,,0.00,19.8,WeatherDisplay:10.37,2013-01-17 23:15:00,
2013-01-17 17:20:00,52.6,30.1,30.42,NNE,18,1.8,8.1,42,0.00,CLR,,0.00,15.4,WeatherDisplay:10.37,2013-01-17 23:20:00,
2013-01-17 17:25:00,52.3,31.0,30.42,NNE,20,4.1,6.0,44,0.00,CLR,,0.00,13.2,WeatherDisplay:10.37,2013-01-17 23:25:00,
2013-01-17 17:30:00,51.6,30.4,30.42,NNE,20,3.6,5.8,44,0.00,CLR,,0.00,12.1,WeatherDisplay:10.37,2013-01-17 23:30:00,
2013-01-17 17:35:00,51.4,30.2,30.43,NNE,20,2.2,3.5,44,0.00,CLR,,0.00,9.9,WeatherDisplay:10.37,2013-01-17 23:35:00,
2013-01-17 17:40:00,50.2,30.2,30.43,NNE,20,1.0,2.3,46,0.00,CLR,,0.00,5.5,WeatherDisplay:10.37,2013-01-17 23:40:00,
2013-01-17 17:45:00,50.4,30.4,30.43,NNE,20,2.1,3.5,46,0.00,CLR,,0.00,0.0,WeatherDisplay:10.37,2013-01-17 23:45:00,
2013-01-17 17:50:00,49.1,30.2,30.43,NNE,20,3.4,5.8,48,0.00,CLR,,0.00,0.0,WeatherDisplay:10.37,2013-01-17 23:50:00,
2013-01-17 17:55:00,47.6,30.8,30.43,NNE,20,1.1,2.3,52,0.00,CLR,,0.00,0.0,WeatherDisplay:10.37,2013-01-17 23:55:00,
2013-01-17 18:00:00,46.8,31.5,30.43,NNE,20,0.0,2.3,55,0.00,CLR,,0.00,0.0,WeatherDisplay:10.37,2013-01-18 00:00:00,
2013-01-17 18:05:00,46.9,30.6,30.44,NNE,20,0.4,3.5,53,0.00,CLR,,0.00,0.0,WeatherDisplay:10.37,2013-01-18 00:05:00,
2013-01-17 18:10:00,46.5,30.7,30.43,NNE,20,1.1,2.0,54,0.00,CLR,,0.00,0.0,WeatherDisplay:10.37,2013-01-18 00:10:00,
2013-01-17 18:15:00,46.4,30.2,30.44,NNE,20,0.0,0.0,53,0.00,CLR,,0.00,0.0,WeatherDisplay:10.37,2013-01-18 00:15:00,
2013-01-17 18:20:00,45.9,30.6,30.44,NNE,20,0.6,2.3,55,0.00,CLR,,0.00,0.0,WeatherDisplay:10.37,2013-01-18 00:20:00,
2013-01-17 18:25:00,45.3,31.0,30.44,NNE,20,0.1,1.1,57,0.00,CLR,,0.00,0.0,WeatherDisplay:10.37,2013-01-18 00:25:00,
2013-01-17 18:30:00,45.5,30.7,30.44,NNE,20,0.0,0.0,56,0.00,CLR,,0.00,0.0,WeatherDisplay:10.37,2013-01-18 00:30:00,
2013-01-17 18:35:00,45.2,30.4,30.44,NNE,20,0.0,1.1,56,0.00,CLR,,0.00,0.0,WeatherDisplay:10.37,2013-01-18 00:35:00,
2013-01-17 18:40:00,45.1,30.3,30.44,NNE,20,0.0,0.0,56,0.00,CLR,,0.00,0.0,WeatherDisplay:10.37,2013-01-18 00:40:00,
2013-01-17 18:45:00,44.8,30.9,30.44,NNE,20,0.5,0.0,58,0.00,CLR,,0.00,0.0,WeatherDisplay:10.37,2013-01-18 00:45:00,
2013-01-17 18:50:00,44.0,30.6,30.44,NNE,20,1.5,3.5,59,0.00,CLR,,0.00,0.0,WeatherDisplay:10.37,2013-01-18 00:50:00,
2013-01-17 18:55:00,43.4,30.8,30.44,NNE,20,1.1,3.5,61,0.00,CLR,,0.00,0.0,WeatherDisplay:10.37,2013-01-18 00:55:00,
2013-01-17 19:00:00,43.7,30.7,30.44,NNE,20,3.8,4.6,60,0.00,CLR,,0.00,0.0,WeatherDisplay:10.37,2013-01-18 01:00:00,
2013-01-17 19:05:00,43.0,30.5,30.45,NNE,20,3.8,4.6,61,0.00,CLR,,0.00,0.0,WeatherDisplay:10.37,2013-01-18 01:05:00,
2013-01-17 19:10:00,43.5,30.5,30.45,NNE,20,3.2,3.5,60,0.00,CLR,,0.00,0.0,WeatherDisplay:10.37,2013-01-18 01:10:00,
2013-01-17 19:15:00,42.3,31.0,30.45,NNE,20,2.5,3.5,64,0.00,CLR,,0.00,0.0,WeatherDisplay:10.37,2013-01-18 01:15:00,
2013-01-17 19:20:00,41.2,30.7,30.45,NNE,20,3.0,3.5,66,0.00,CLR,,0.00,0.0,WeatherDisplay:10.37,2013-01-18 01:20:00,
2013-01-17 19:25:00,41.9,31.4,30.45,NNE,20,1.8,3.5,66,0.00,CLR,,0.00,0.0,WeatherDisplay:10.37,2013-01-18 01:25:00,
2013-01-17 19:30:00,42.6,30.1,30.45,NNE,20,2.7,3.5,61,0.00,CLR,,0.00,0.0,WeatherDisplay:10.37,2013-01-18 01:30:00,
2013-01-17 19:35:00,42.6,30.1,30.46,NNE,20,2.4,3.5,61,0.00,CLR,,0.00,0.0,WeatherDisplay:10.37,2013-01-18 01:35:00,
2013-01-17 19:40:00,42.0,29.9,30.46,NNE,20,0.4,2.3,62,0.00,CLR,,0.00,0.0,WeatherDisplay:10.37,2013-01-18 01:40:00,
2013-01-17 19:45:00,41.9,29.8,30.46,NNE,20,0.0,0.0,62,0.00,CLR,,0.00,0.0,WeatherDisplay:10.37,2013-01-18 01:45:00,
2013-01-17 19:50:00,41.5,29.8,30.46,NNE,20,0.0,0.0,63,0.00,CLR,,0.00,0.0,WeatherDisplay:10.37,2013-01-18 01:50:00,
2013-01-17 19:55:00,40.6,29.7,30.46,NNE,20,0.0,0.0,65,0.00,CLR,,0.00,0.0,WeatherDisplay:10.37,2013-01-18 01:55:00,
2013-01-17 20:00:00,40.8,29.6,30.46,NNE,20,0.0,0.0,64,0.00,CLR,,0.00,0.0,WeatherDisplay:10.37,2013-01-18 02:00:00,
2013-01-17 20:05:00,41.1,30.2,30.47,NNE,20,0.0,0.0,65,0.00,CLR,,0.00,0.0,WeatherDisplay:10.37,2013-01-18 02:05:00,
2013-01-17 20:10:00,40.8,29.6,30.47,NNE,20,0.0,0.0,64,0.00,CLR,,0.00,0.0,WeatherDisplay:10.37,2013-01-18 02:10:00,
2013-01-17 20:15:00,40.6,29.7,30.47,NNE,20,0.0,0.0,65,0.00,CLR,,0.00,0.0,WeatherDisplay:10.37,2013-01-18 02:15:00,
2013-01-17 20:20:00,41.0,29.7,30.47,NNE,20,0.0,0.0,64,0.00,CLR,,0.00,0.0,WeatherDisplay:10.37,2013-01-18 02:20:00,
2013-01-17 20:25:00,41.2,29.9,30.47,NNE,20,0.0,0.0,64,0.00,CLR,,0.00,0.0,WeatherDisplay:10.37,2013-01-18 02:25:00,
2013-01-17 20:30:00,41.7,29.6,30.47,NNE,20,0.0,0.0,62,0.00,CLR,,0.00,0.0,WeatherDisplay:10.37,2013-01-18 02:30:00,
2013-01-17 20:35:00,40.3,29.8,30.47,NNE,20,0.0,0.0,66,0.00,CLR,,0.00,0.0,WeatherDisplay:10.37,2013-01-18 02:35:00,
2013-01-17 20:40:00,38.0,29.4,30.47,NNE,20,0.0,0.0,71,0.00,CLR,,0.00,0.0,WeatherDisplay:10.37,2013-01-18 02:40:00,
2013-01-17 20:45:00,36.5,30.3,30.47,NNE,20,0.0,0.0,78,0.00,CLR,,0.00,0.0,WeatherDisplay:10.37,2013-01-18 02:45:00,
2013-01-17 20:50:00,36.1,29.9,30.47,NNE,20,0.0,0.0,78,0.00,CLR,,0.00,0.0,WeatherDisplay:10.37,2013-01-18 02:50:00,
2013-01-17 20:55:00,36.1,29.9,30.47,NNE,20,0.0,0.0,78,0.00,CLR,,0.00,0.0,WeatherDisplay:10.37,2013-01-18 02:55:00,
2013-01-17 21:00:00,34.9,29.4,30.47,NNE,20,0.0,0.0,80,0.00,CLR,,0.00,0.0,WeatherDisplay:10.37,2013-01-18 03:00:00,
2013-01-17 21:05:00,34.9,29.7,30.47,NNE,20,0.0,0.0,81,0.00,CLR,,0.00,0.0,WeatherDisplay:10.37,2013-01-18 03:05:00,
2013-01-17 21:10:00,35.1,29.6,30.47,NNE,20,0.0,0.0,80,0.00,CLR,,0.00,0.0,WeatherDisplay:10.37,2013-01-18 03:10:00,
2013-01-17 21:15:00,35.7,29.5,30.48,NNE,20,0.0,0.0,78,0.00,CLR,,0.00,0.0,WeatherDisplay:10.37,2013-01-18 03:15:00,
2013-01-17 21:20:00,35.2,29.0,30.48,NNE,20,0.0,0.0,78,0.00,CLR,,0.00,0.0,WeatherDisplay:10.37,2013-01-18 03:20:00,
2013-01-17 21:25:00,34.1,29.8,30.48,NNE,20,0.0,0.0,84,0.00,CLR,,0.00,0.0,WeatherDisplay:10.37,2013-01-18 03:25:00,
2013-01-17 21:30:00,34.1,29.5,30.48,NNE,20,0.5,3.0,83,0.00,CLR,,0.00,0.0,WeatherDisplay:10.37,2013-01-18 03:30:00,
2013-01-17 21:35:00,35.3,29.1,30.48,NNE,20,0.0,0.0,78,0.00,CLR,,0.00,0.0,WeatherDisplay:10.37,2013-01-18 03:35:00,
2013-01-17 21:40:00,35.0,28.8,30.48,NNE,20,0.0,0.0,78,0.00,CLR,,0.00,0.0,WeatherDisplay:10.37,2013-01-18 03:40:00,
2013-01-17 21:45:00,35.6,29.4,30.48,NNE,20,0.0,0.0,78,0.00,CLR,,0.00,0.0,WeatherDisplay:10.37,2013-01-18 03:45:00,
2013-01-17 21:50:00,35.8,29.3,30.48,NNE,20,0.0,0.0,77,0.00,CLR,,0.00,0.0,WeatherDisplay:10.37,2013-01-18 03:50:00,
2013-01-17 21:55:00,35.6,29.4,30.49,NNE,20,0.0,0.0,78,0.00,CLR,,0.00,0.0,WeatherDisplay:10.37,2013-01-18 03:55:00,
2013-01-17 22:00:00,33.4,29.1,30.49,NNE,20,0.0,0.0,84,0.00,CLR,,0.00,0.0,WeatherDisplay:10.37,2013-01-18 04:00:00,
2013-01-17 22:05:00,33.7,29.4,30.48,NNE,20,0.0,0.0,84,0.00,CLR,,0.00,0.0,WeatherDisplay:10.37,2013-01-18 04:05:00,
2013-01-17 22:10:00,33.0,29.3,30.49,NNE,20,0.0,0.0,86,0.00,CLR,,0.00,0.0,WeatherDisplay:10.37,2013-01-18 04:10:00,
2013-01-17 22:15:00,32.0,28.0,30.48,NNE,20,0.0,0.0,85,0.00,CLR,,0.00,0.0,WeatherDisplay:10.37,2013-01-18 04:15:00,
2013-01-17 22:20:00,31.9,27.9,30.49,NNE,20,0.0,0.0,85,0.00,CLR,,0.00,0.0,WeatherDisplay:10.37,2013-01-18 04:20:00,
2013-01-17 22:25:00,31.1,27.1,30.49,NNE,20,0.0,0.0,85,0.00,CLR,,0.00,0.0,WeatherDisplay:10.37,2013-01-18 04:25:00,
2013-01-17 22:30:00,31.3,27.3,30.49,NNE,20,0.0,0.0,85,0.00,CLR,,0.00,0.0,WeatherDisplay:10.37,2013-01-18 04:30:00,
2013-01-17 22:35:00,32.1,27.8,30.49,NNE,20,0.0,0.0,84,0.00,CLR,,0.00,0.0,WeatherDisplay:10.37,2013-01-18 04:35:00,
2013-01-17 22:40:00,32.0,28.0,30.49,NNE,20,0.0,0.0,85,0.00,CLR,,0.00,0.0,WeatherDisplay:10.37,2013-01-18 04:40:00,
2013-01-17 22:45:00,31.5,27.5,30.49,NNE,20,0.0,0.0,85,0.00,CLR,,0.00,0.0,WeatherDisplay:10.37,2013-01-18 04:45:00,
2013-01-17 22:50:00,31.3,27.6,30.49,NNE,20,0.0,0.0,86,0.00,CLR,,0.00,0.0,WeatherDisplay:10.37,2013-01-18 04:50:00,
2013-01-17 22:55:00,31.2,28.1,30.49,NNE,20,0.0,0.0,88,0.00,CLR,,0.00,0.0,WeatherDisplay:10.37,2013-01-18 04:55:00,
2013-01-17 23:00:00,31.1,28.0,30.49,NNE,20,0.0,0.0,88,0.00,CLR,,0.00,0.0,WeatherDisplay:10.37,2013-01-18 05:00:00,
2013-01-17 23:01:00,31.1,28.0,30.49,NNE,20,0.0,0.0,88,0.00,CLR,,0.00,0.0,WeatherDisplay:10.37,2013-01-18 05:01:00,
2013-01-17 23:03:00,30.7,27.6,30.49,NNE,20,0.0,0.0,88,0.00,CLR,,0.00,0.0,WeatherDisplay:10.37,2013-01-18 05:03:00,
2013-01-17 23:08:00,30.3,27.2,30.49,NNE,20,0.0,1.1,88,0.00,CLR,,0.00,0.0,WeatherDisplay:10.37,2013-01-18 05:08:00,
2013-01-17 23:13:00,31.3,27.9,30.49,NNE,20,0.0,0.0,87,0.00,CLR,,0.00,0.0,WeatherDisplay:10.37,2013-01-18 05:13:00,
2013-01-17 23:18:00,31.5,27.8,30.49,NNE,20,0.0,0.0,86,0.00,CLR,,0.00,0.0,WeatherDisplay:10.37,2013-01-18 05:18:00,
2013-01-17 23:23:00,31.3,27.9,30.49,NNE,20,0.0,0.0,87,0.00,CLR,,0.00,0.0,WeatherDisplay:10.37,2013-01-18 05:23:00,
2013-01-17 23:28:00,30.9,27.8,30.49,NNE,20,0.0,0.0,88,0.00,CLR,,0.00,0.0,WeatherDisplay:10.37,2013-01-18 05:28:00,
2013-01-17 23:33:00,31.7,28.3,30.49,NNE,20,0.0,0.0,87,0.00,CLR,,0.00,0.0,WeatherDisplay:10.37,2013-01-18 05:33:00,
2013-01-17 23:38:00,30.9,27.5,30.49,NNE,20,0.0,0.0,87,0.00,CLR,,0.00,0.0,WeatherDisplay:10.37,2013-01-18 05:38:00,
2013-01-17 23:43:00,30.1,27.0,30.49,NNE,20,0.0,0.0,88,0.00,CLR,,0.00,0.0,WeatherDisplay:10.37,2013-01-18 05:43:00,
2013-01-17 23:48:00,30.2,27.1,30.49,NNE,20,0.0,0.0,88,0.00,CLR,,0.00,0.0,WeatherDisplay:10.37,2013-01-18 05:48:00,
2013-01-17 23:53:00,30.2,27.3,30.49,NNE,20,0.0,0.0,89,0.00,CLR,,0.00,0.0,WeatherDisplay:10.37,2013-01-18 05:53:00,
2013-01-17 23:58:00,30.1,27.3,30.49,NNE,20,0.0,0.0,89,0.00,CLR,,0.00,0.0,WeatherDisplay:10.37,2013-01-18 05:58:00,